Terminal Aerodrome Forecast
Issued by NWS Jackson, KY

Home | Current Version | Previous Version | Text Only | Print | Product List | Glossary On
Versions: 1 2 3 4 5 6 7 8 9 10 11 12 13 14 15 16 17 18
000
FTUS43 KJKL 191130
TAFLOZ
TAF
KLOZ 191130Z 1912/2012 00000KT 3SM BR FEW120
     FM191300 VRB03KT P6SM SCT120
     FM191600 VRB03KT P6SM SCT050
     FM192200 VRB05KT P6SM VCSH BKN050
     FM200100 VRB03KT P6SM SCT060
     FM200700 00000KT 3SM BR FEW200=

USA.gov is the U.S. government's official web portal to all federal, state and local government web resources and services.